createdAt,value
2016-03-07T00:00:18.107Z,978.2
2016-03-07T00:01:18.141Z,978.16
2016-03-07T00:02:18.112Z,978.12
2016-03-07T00:03:18.100Z,978.14
2016-03-07T00:04:18.087Z,978.15
2016-03-07T00:05:18.090Z,978.15
2016-03-07T00:06:18.076Z,978.15
2016-03-07T00:07:18.079Z,978.16
2016-03-07T00:08:18.066Z,978.12
2016-03-07T00:09:18.068Z,978.04
2016-03-07T00:10:18.056Z,978.09
2016-03-07T00:11:18.059Z,978.09
2016-03-07T00:12:18.062Z,978.11
2016-03-07T00:13:18.049Z,978.08
2016-03-07T00:14:18.051Z,978.07
2016-03-07T00:15:18.069Z,978.11
2016-03-07T00:16:18.041Z,978.1
2016-03-07T00:17:18.043Z,978.11
2016-03-07T00:18:18.030Z,978.1
2016-03-07T00:19:18.034Z,978.08
2016-03-07T00:20:18.020Z,978.09
2016-03-07T00:21:18.023Z,978.05
2016-03-07T00:22:18.011Z,978.1
2016-03-07T00:23:18.013Z,978.08
2016-03-07T00:24:17.999Z,978.06
2016-03-07T00:25:18.003Z,978.08
2016-03-07T00:26:18.005Z,978.09
2016-03-07T00:27:17.991Z,978.06
2016-03-07T00:28:17.994Z,978.05
2016-03-07T00:29:17.997Z,978.05
2016-03-07T00:30:17.985Z,978.04
2016-03-07T00:31:17.988Z,978.07
2016-03-07T00:32:17.974Z,977.99
2016-03-07T00:33:17.977Z,978.01
2016-03-07T00:34:17.964Z,978.03
2016-03-07T00:35:17.967Z,978.03
2016-03-07T00:36:17.969Z,978.06
2016-03-07T00:37:17.956Z,978.03
2016-03-07T00:38:17.960Z,977.98
2016-03-07T00:39:17.946Z,977.99
2016-03-07T00:40:17.949Z,977.97
2016-03-07T00:41:17.937Z,978
2016-03-07T00:42:17.939Z,978.02
2016-03-07T00:43:17.942Z,977.97
2016-03-07T00:44:17.945Z,977.96
2016-03-07T00:45:17.931Z,978.03
2016-03-07T00:46:17.917Z,977.98
2016-03-07T00:47:17.953Z,977.98
2016-03-07T00:48:17.908Z,978.01
2016-03-07T00:49:17.926Z,977.99
2016-03-07T00:50:17.914Z,977.94
2016-03-07T00:51:17.900Z,977.94
2016-03-07T00:52:17.903Z,977.98
2016-03-07T00:53:17.890Z,977.99
2016-03-07T00:54:17.892Z,977.98
2016-03-07T00:55:17.880Z,977.97
2016-03-07T00:56:17.883Z,977.99
2016-03-07T00:57:17.885Z,977.99
2016-03-07T00:58:17.888Z,977.98
2016-03-07T00:59:17.875Z,977.98
2016-03-07T01:00:17.863Z,977.98
2016-03-07T01:01:17.865Z,977.97
2016-03-07T01:02:17.852Z,977.94
2016-03-07T01:03:17.855Z,977.95
2016-03-07T01:04:17.857Z,977.94
2016-03-07T01:05:17.860Z,977.96
2016-03-07T01:06:17.847Z,977.95
2016-03-07T01:07:17.849Z,977.95
2016-03-07T01:08:17.838Z,977.9
2016-03-07T01:09:17.840Z,977.93
2016-03-07T01:10:17.826Z,977.94
2016-03-07T01:11:17.829Z,977.92
2016-03-07T01:12:17.816Z,977.9
2016-03-07T01:13:17.818Z,977.95
2016-03-07T01:14:17.821Z,977.94
2016-03-07T01:15:17.809Z,977.92
2016-03-07T01:16:17.811Z,977.96
2016-03-07T01:17:17.799Z,977.91
2016-03-07T01:18:17.801Z,977.92
2016-03-07T01:19:17.789Z,977.85
2016-03-07T01:20:17.806Z,977.91
2016-03-07T01:21:17.794Z,977.91
2016-03-07T01:22:17.781Z,977.91
2016-03-07T01:23:17.799Z,977.88
2016-03-07T01:24:17.770Z,977.92
2016-03-07T01:25:17.773Z,977.88
2016-03-07T01:26:17.761Z,977.87
2016-03-07T01:27:17.764Z,977.84
2016-03-07T01:28:17.781Z,977.82
2016-03-07T01:29:17.752Z,977.82
2016-03-07T01:30:17.756Z,977.84
2016-03-07T01:31:17.742Z,977.85
2016-03-07T01:32:17.744Z,977.8
2016-03-07T01:33:17.747Z,977.8
2016-03-07T01:34:17.735Z,977.78
2016-03-07T01:35:17.737Z,977.79
2016-03-07T01:36:17.725Z,977.84
2016-03-07T01:37:17.727Z,977.78
2016-03-07T01:38:17.729Z,977.81
2016-03-07T01:39:17.718Z,977.82
2016-03-07T01:40:17.720Z,977.82
2016-03-07T01:41:17.707Z,977.81
2016-03-07T01:42:17.709Z,977.8
2016-03-07T01:43:17.696Z,977.79
2016-03-07T01:44:17.699Z,977.79
2016-03-07T01:45:17.687Z,977.82
2016-03-07T01:46:17.689Z,977.78
2016-03-07T01:47:17.692Z,977.82
2016-03-07T01:48:17.695Z,977.78
2016-03-07T01:49:17.681Z,977.8
2016-03-07T01:50:17.668Z,977.74
2016-03-07T01:51:17.670Z,977.76
2016-03-07T01:52:17.659Z,977.76
2016-03-07T01:53:17.661Z,977.78
2016-03-07T01:54:17.664Z,977.75
2016-03-07T01:55:17.745Z,977.75
2016-03-07T01:56:17.653Z,977.71
2016-03-07T01:57:17.641Z,977.69
2016-03-07T01:58:17.644Z,977.71
2016-03-07T01:59:17.630Z,977.7
2016-03-07T02:00:17.632Z,977.7
2016-03-07T02:01:17.636Z,977.68
2016-03-07T02:02:17.638Z,977.69
2016-03-07T02:03:17.625Z,977.64
2016-03-07T02:04:17.613Z,977.69
2016-03-07T02:05:17.615Z,977.66
2016-03-07T02:06:17.602Z,977.68
2016-03-07T02:07:17.605Z,977.67
2016-03-07T02:08:17.591Z,977.68
2016-03-07T02:09:17.594Z,977.67
2016-03-07T02:10:17.597Z,977.69
2016-03-07T02:11:17.600Z,977.68
2016-03-07T02:12:17.587Z,977.68
2016-03-07T02:13:17.590Z,977.66
2016-03-07T02:14:17.577Z,977.7
2016-03-07T02:15:17.564Z,977.63
2016-03-07T02:16:17.567Z,977.71
2016-03-07T02:17:17.554Z,977.68
2016-03-07T02:18:17.572Z,977.64
2016-03-07T02:19:17.559Z,977.62
2016-03-07T02:20:17.546Z,977.64
2016-03-07T02:21:17.549Z,977.67
2016-03-07T02:22:17.537Z,977.68
2016-03-07T02:23:17.539Z,977.67
2016-03-07T02:24:17.542Z,977.64
2016-03-07T02:25:17.528Z,977.63
2016-03-07T02:26:17.531Z,977.62
2016-03-07T02:27:17.518Z,977.58
2016-03-07T02:28:17.520Z,977.59
2016-03-07T02:29:17.524Z,977.59
2016-03-07T02:30:17.526Z,977.55
2016-03-07T02:31:17.514Z,977.55
2016-03-07T02:32:17.516Z,977.55
2016-03-07T02:33:17.503Z,977.56
2016-03-07T02:34:17.490Z,977.55
2016-03-07T02:35:17.493Z,977.57
2016-03-07T02:36:17.496Z,977.56
2016-03-07T02:37:17.483Z,977.53
2016-03-07T02:38:17.470Z,977.52
2016-03-07T02:39:17.472Z,977.51
2016-03-07T02:40:17.475Z,977.51
2016-03-07T02:41:17.477Z,977.51
2016-03-07T02:42:17.465Z,977.46
2016-03-07T02:43:17.468Z,977.45
2016-03-07T02:44:17.454Z,977.45
2016-03-07T02:45:17.458Z,977.47
2016-03-07T02:46:17.460Z,977.48
2016-03-07T02:47:17.447Z,977.46
2016-03-07T02:48:17.434Z,977.43
2016-03-07T02:49:17.437Z,977.45
2016-03-07T02:50:17.440Z,977.42
2016-03-07T02:51:17.426Z,977.46
2016-03-07T02:52:17.429Z,977.44
2016-03-07T02:53:17.417Z,977.46
2016-03-07T02:54:17.420Z,977.43
2016-03-07T02:55:17.406Z,977.44
2016-03-07T02:56:17.409Z,977.48
2016-03-07T02:57:17.411Z,977.49
2016-03-07T02:58:17.398Z,977.45
2016-03-07T02:59:17.401Z,977.45
2016-03-07T03:00:17.388Z,977.46
2016-03-07T03:01:17.392Z,977.44
2016-03-07T03:02:17.394Z,977.43
2016-03-07T03:03:17.397Z,977.4
2016-03-07T03:04:17.383Z,977.42
2016-03-07T03:05:17.386Z,977.42
2016-03-07T03:06:17.373Z,977.39
2016-03-07T03:07:17.360Z,977.41
2016-03-07T03:08:17.363Z,977.4
2016-03-07T03:09:17.366Z,977.43
2016-03-07T03:10:17.353Z,977.37
2016-03-07T03:11:17.340Z,977.41
2016-03-07T03:12:17.343Z,977.41
2016-03-07T03:13:17.346Z,977.41
2016-03-07T03:14:17.332Z,977.42
2016-03-07T03:15:17.335Z,977.42
2016-03-07T03:16:17.321Z,977.38
2016-03-07T03:17:17.357Z,977.39
2016-03-07T03:18:17.327Z,977.37
2016-03-07T03:19:17.393Z,977.35
2016-03-07T03:20:17.395Z,977.36
2016-03-07T03:21:17.320Z,977.39
2016-03-07T03:22:17.307Z,977.44
2016-03-07T03:23:17.309Z,977.45
2016-03-07T03:24:17.296Z,977.42
2016-03-07T03:25:17.284Z,977.44
2016-03-07T03:26:17.287Z,977.51
2016-03-07T03:27:17.273Z,977.47
2016-03-07T03:28:17.276Z,977.55
2016-03-07T03:29:17.264Z,977.58
2016-03-07T03:30:17.266Z,977.52
2016-03-07T03:31:17.253Z,977.52
2016-03-07T03:32:17.255Z,977.54
2016-03-07T03:33:17.258Z,977.55
2016-03-07T03:34:17.261Z,977.62
2016-03-07T03:35:17.264Z,977.55
2016-03-07T03:36:17.236Z,977.56
2016-03-07T03:37:17.222Z,977.56
2016-03-07T03:38:17.225Z,977.54
2016-03-07T03:39:17.227Z,977.58
2016-03-07T03:40:17.214Z,977.53
2016-03-07T03:41:17.217Z,977.55
2016-03-07T03:42:17.205Z,977.59
2016-03-07T03:43:17.207Z,977.6
2016-03-07T03:44:17.194Z,977.59
2016-03-07T03:45:17.197Z,977.62
2016-03-07T03:46:17.184Z,977.59
2016-03-07T03:47:17.187Z,977.63
2016-03-07T03:48:17.173Z,977.6
2016-03-07T03:49:17.176Z,977.61
2016-03-07T03:50:17.163Z,977.62
2016-03-07T03:51:17.166Z,977.62
2016-03-07T03:52:17.153Z,977.62
2016-03-07T03:53:17.156Z,977.65
2016-03-07T03:54:17.142Z,977.65
2016-03-07T03:55:17.145Z,977.68
2016-03-07T03:56:17.132Z,977.66
2016-03-07T03:57:17.135Z,977.68
2016-03-07T03:58:17.122Z,977.7
2016-03-07T03:59:17.126Z,977.73
2016-03-07T04:00:17.112Z,977.74
2016-03-07T04:01:17.115Z,977.74
2016-03-07T04:02:17.102Z,977.77
2016-03-07T04:03:17.105Z,977.74
2016-03-07T04:04:17.091Z,977.78
2016-03-07T04:05:17.095Z,977.75
2016-03-07T04:06:17.097Z,977.78
2016-03-07T04:07:17.084Z,977.79
2016-03-07T04:08:17.071Z,977.84
2016-03-07T04:09:17.074Z,977.78
2016-03-07T04:10:17.077Z,977.8
2016-03-07T04:11:17.064Z,977.82
2016-03-07T04:12:17.050Z,977.82
2016-03-07T04:13:17.053Z,977.83
2016-03-07T04:14:17.041Z,977.86
2016-03-07T04:15:17.044Z,977.83
2016-03-07T04:16:17.030Z,977.82
2016-03-07T04:17:17.032Z,977.84
2016-03-07T04:18:17.020Z,977.85
2016-03-07T04:19:17.023Z,977.87
2016-03-07T04:20:17.010Z,977.86
2016-03-07T04:21:16.996Z,977.88
2016-03-07T04:22:16.999Z,977.92
2016-03-07T04:23:16.986Z,977.86
2016-03-07T04:24:16.989Z,977.92
2016-03-07T04:25:16.992Z,977.88
2016-03-07T04:26:16.979Z,977.88
2016-03-07T04:27:16.965Z,977.86
2016-03-07T04:28:16.969Z,977.87
2016-03-07T04:29:16.956Z,977.9
2016-03-07T04:30:16.959Z,977.86
2016-03-07T04:31:16.945Z,977.88
2016-03-07T04:32:16.948Z,977.86
2016-03-07T04:33:16.966Z,977.88
2016-03-07T04:34:16.939Z,977.9
2016-03-07T04:35:16.945Z,977.93
2016-03-07T04:36:16.915Z,977.92
2016-03-07T04:37:16.917Z,977.91
2016-03-07T04:38:16.906Z,977.9
2016-03-07T04:39:16.908Z,977.92
2016-03-07T04:40:16.926Z,977.91
2016-03-07T04:41:16.901Z,977.9
2016-03-07T04:42:16.888Z,977.93
2016-03-07T04:43:16.875Z,977.95
2016-03-07T04:44:16.879Z,977.98
2016-03-07T04:45:16.896Z,977.95
2016-03-07T04:46:16.868Z,977.99
2016-03-07T04:47:16.854Z,977.97
2016-03-07T04:48:16.857Z,977.97
2016-03-07T04:49:16.845Z,978
2016-03-07T04:50:16.848Z,978
2016-03-07T04:51:16.834Z,978.04
2016-03-07T04:52:16.837Z,978.01
2016-03-07T04:53:16.825Z,977.99
2016-03-07T04:54:16.842Z,978.02
2016-03-07T04:55:16.830Z,978.04
2016-03-07T04:56:16.816Z,978.05
2016-03-07T04:57:16.835Z,978.08
2016-03-07T04:58:16.806Z,978.07
2016-03-07T04:59:16.809Z,978.04
2016-03-07T05:00:16.796Z,978.08
2016-03-07T05:01:16.783Z,978.07
2016-03-07T05:02:16.770Z,978.11
2016-03-07T05:03:16.772Z,978.13
2016-03-07T05:04:16.775Z,978.14
2016-03-07T05:05:16.762Z,978.13
2016-03-07T05:06:16.773Z,978.13
2016-03-07T05:07:16.760Z,978.18
2016-03-07T05:08:16.747Z,978.12
2016-03-07T05:09:16.735Z,978.08
2016-03-07T05:10:16.737Z,978.13
2016-03-07T05:11:16.724Z,978.13
2016-03-07T05:12:16.727Z,978.11
2016-03-07T05:13:16.729Z,978.12
2016-03-07T05:14:16.716Z,978.12
2016-03-07T05:15:16.703Z,978.12
2016-03-07T05:16:16.706Z,978.12
2016-03-07T05:17:16.709Z,978.12
2016-03-07T05:18:16.696Z,978.11
2016-03-07T05:19:16.683Z,978.17
2016-03-07T05:20:16.686Z,978.12
2016-03-07T05:21:16.672Z,978.12
2016-03-07T05:22:16.675Z,978.14
2016-03-07T05:23:16.678Z,978.14
2016-03-07T05:24:16.681Z,978.09
2016-03-07T05:25:16.667Z,978.12
2016-03-07T05:26:16.655Z,978.17
2016-03-07T05:27:16.642Z,978.17
2016-03-07T05:28:16.645Z,978.15
2016-03-07T05:29:16.631Z,978.12
2016-03-07T05:30:16.634Z,978.2
2016-03-07T05:31:16.636Z,978.2
2016-03-07T05:32:16.625Z,978.18
2016-03-07T05:33:16.611Z,978.2
2016-03-07T05:34:16.614Z,978.22
2016-03-07T05:35:16.616Z,978.2
2016-03-07T05:36:16.604Z,978.24
2016-03-07T05:37:16.607Z,978.22
2016-03-07T05:38:16.594Z,978.23
2016-03-07T05:39:16.596Z,978.23
2016-03-07T05:40:16.583Z,978.23
2016-03-07T05:41:16.586Z,978.24
2016-03-07T05:42:16.588Z,978.19
2016-03-07T05:43:16.576Z,978.21
2016-03-07T05:44:16.578Z,978.23
2016-03-07T05:45:16.612Z,978.24
2016-03-07T05:46:16.552Z,978.24
2016-03-07T05:47:16.555Z,978.27
2016-03-07T05:48:16.542Z,978.31
2016-03-07T05:49:16.545Z,978.29
2016-03-07T05:50:16.531Z,978.33
2016-03-07T05:51:16.535Z,978.34
2016-03-07T05:52:16.522Z,978.3
2016-03-07T05:53:16.525Z,978.3
2016-03-07T05:54:16.527Z,978.3
2016-03-07T05:55:16.515Z,978.31
2016-03-07T05:56:16.517Z,978.28
2016-03-07T05:57:16.520Z,978.26
2016-03-07T05:58:16.491Z,978.28
2016-03-07T05:59:16.525Z,978.28
2016-03-07T06:00:16.512Z,978.25
2016-03-07T06:01:16.484Z,978.3
2016-03-07T06:02:16.486Z,978.27
2016-03-07T06:03:16.473Z,978.3
2016-03-07T06:04:16.475Z,978.29
2016-03-07T06:05:16.463Z,978.3
2016-03-07T06:06:16.466Z,978.3
2016-03-07T06:07:16.452Z,978.35
2016-03-07T06:08:16.455Z,978.33
2016-03-07T06:09:16.443Z,978.37
2016-03-07T06:10:16.446Z,978.33
2016-03-07T06:11:16.432Z,978.36
2016-03-07T06:12:16.435Z,978.36
2016-03-07T06:13:16.437Z,978.38
2016-03-07T06:14:16.424Z,978.4
2016-03-07T06:15:16.427Z,978.34
2016-03-07T06:16:16.415Z,978.4
2016-03-07T06:17:16.417Z,978.39
2016-03-07T06:18:16.404Z,978.37
2016-03-07T06:19:16.406Z,978.38
2016-03-07T06:20:16.394Z,978.37
2016-03-07T06:21:16.396Z,978.38
2016-03-07T06:22:16.384Z,978.41
2016-03-07T06:23:16.386Z,978.43
2016-03-07T06:24:16.390Z,978.42
2016-03-07T06:25:16.376Z,978.41
2016-03-07T06:26:16.364Z,978.46
2016-03-07T06:27:16.366Z,978.47
2016-03-07T06:28:16.353Z,978.47
2016-03-07T06:29:16.356Z,978.44
2016-03-07T06:30:16.359Z,978.43
2016-03-07T06:31:16.345Z,978.44
2016-03-07T06:32:16.333Z,978.47
2016-03-07T06:33:16.350Z,978.46
2016-03-07T06:34:16.353Z,978.46
2016-03-07T06:35:16.372Z,978.51
2016-03-07T06:36:16.327Z,978.48
2016-03-07T06:37:16.314Z,978.5
2016-03-07T06:38:16.317Z,978.56
2016-03-07T06:39:16.305Z,978.52
2016-03-07T06:40:16.307Z,978.55
2016-03-07T06:41:16.294Z,978.55
2016-03-07T06:42:16.296Z,978.52
2016-03-07T06:43:16.300Z,978.56
2016-03-07T06:44:16.287Z,978.53
2016-03-07T06:45:16.290Z,978.55
2016-03-07T06:46:16.276Z,978.53
2016-03-07T06:47:16.279Z,978.54
2016-03-07T06:48:16.265Z,978.52
2016-03-07T06:49:16.269Z,978.5
2016-03-07T06:50:16.256Z,978.53
2016-03-07T06:51:16.259Z,978.5
2016-03-07T06:52:16.262Z,978.49
2016-03-07T06:53:16.265Z,978.51
2016-03-07T06:54:16.251Z,978.48
2016-03-07T06:55:16.254Z,978.49
2016-03-07T06:56:16.240Z,978.48
2016-03-07T06:57:16.238Z,978.48
2016-03-07T06:58:16.211Z,978.49
2016-03-07T06:59:16.183Z,978.51
2016-03-07T07:00:16.171Z,978.51
2016-03-07T07:01:16.159Z,978.49
2016-03-07T07:02:16.136Z,978.52
2016-03-07T07:03:16.133Z,978.56
2016-03-07T07:04:16.130Z,978.52
2016-03-07T07:05:16.112Z,978.54
2016-03-07T07:06:16.108Z,978.48
2016-03-07T07:07:16.107Z,978.57
2016-03-07T07:08:16.092Z,978.53
2016-03-07T07:09:16.109Z,978.54
2016-03-07T07:10:16.079Z,978.53
2016-03-07T07:11:16.064Z,978.5
2016-03-07T07:12:16.065Z,978.53
2016-03-07T07:13:16.051Z,978.53
2016-03-07T07:14:16.053Z,978.55
2016-03-07T07:15:16.056Z,978.53
2016-03-07T07:16:16.058Z,978.58
2016-03-07T07:17:16.050Z,978.57
2016-03-07T07:18:16.052Z,978.56
2016-03-07T07:19:16.039Z,978.58
2016-03-07T07:20:16.026Z,978.64
2016-03-07T07:21:16.028Z,978.6
2016-03-07T07:22:16.030Z,978.59
2016-03-07T07:23:16.017Z,978.59
2016-03-07T07:24:16.021Z,978.61
2016-03-07T07:25:16.007Z,978.6
2016-03-07T07:26:16.010Z,978.61
2016-03-07T07:27:16.012Z,978.6
2016-03-07T07:28:16.015Z,978.6
2016-03-07T07:29:16.002Z,978.57
2016-03-07T07:30:15.989Z,978.58
2016-03-07T07:31:15.992Z,978.6
2016-03-07T07:32:15.995Z,978.59
2016-03-07T07:33:15.982Z,978.56
2016-03-07T07:34:15.984Z,978.59
2016-03-07T07:35:15.987Z,978.61
2016-03-07T07:36:15.975Z,978.61
2016-03-07T07:37:15.977Z,978.6
2016-03-07T07:38:15.980Z,978.6
2016-03-07T07:39:15.967Z,978.65
2016-03-07T07:40:15.969Z,978.61
2016-03-07T07:41:15.972Z,978.62
2016-03-07T07:42:15.958Z,978.6
2016-03-07T07:43:15.962Z,978.61
2016-03-07T07:44:15.964Z,978.64
2016-03-07T07:45:15.967Z,978.64
2016-03-07T07:46:15.954Z,978.67
2016-03-07T07:47:15.958Z,978.65
2016-03-07T07:48:15.960Z,978.62
2016-03-07T07:49:15.963Z,978.65
2016-03-07T07:50:15.965Z,978.66
2016-03-07T07:51:15.968Z,978.65
2016-03-07T07:52:15.954Z,978.68
2016-03-07T07:53:15.957Z,978.69
2016-03-07T07:54:15.959Z,978.65
2016-03-07T07:55:15.962Z,978.63
2016-03-07T07:56:15.965Z,978.65
2016-03-07T07:57:15.968Z,978.63
2016-03-07T07:58:15.971Z,978.61
2016-03-07T07:59:15.973Z,978.55
2016-03-07T08:00:15.976Z,978.56
2016-03-07T08:01:15.979Z,978.49
2016-03-07T08:02:15.982Z,978.5
2016-03-07T08:03:15.984Z,978.5
2016-03-07T08:04:16.003Z,978.52
2016-03-07T08:05:16.005Z,978.46
2016-03-07T08:06:16.008Z,978.44
2016-03-07T08:07:16.010Z,978.48
2016-03-07T08:08:16.013Z,978.48
2016-03-07T08:09:16.016Z,978.45
2016-03-07T08:10:16.019Z,978.45
2016-03-07T08:11:16.021Z,978.49
2016-03-07T08:12:16.025Z,978.48
2016-03-07T08:13:16.027Z,978.5
2016-03-07T08:14:16.030Z,978.46
2016-03-07T08:15:16.048Z,978.46
2016-03-07T08:16:16.050Z,978.48
2016-03-07T08:17:16.053Z,978.45
2016-03-07T08:18:16.055Z,978.49
2016-03-07T08:19:16.058Z,978.48
2016-03-07T08:20:16.077Z,978.49
2016-03-07T08:21:16.079Z,978.42
2016-03-07T08:22:16.082Z,978.45
2016-03-07T08:23:16.100Z,978.42
2016-03-07T08:24:16.103Z,978.44
2016-03-07T08:25:16.106Z,978.48
2016-03-07T08:26:16.109Z,978.49
2016-03-07T08:27:16.112Z,978.45
2016-03-07T08:28:16.115Z,978.46
2016-03-07T08:29:16.132Z,978.42
2016-03-07T08:30:16.120Z,978.46
2016-03-07T08:31:16.137Z,978.5
2016-03-07T08:32:16.140Z,978.46
2016-03-07T08:33:16.143Z,978.41
2016-03-07T08:34:16.161Z,978.49
2016-03-07T08:35:16.148Z,978.48
2016-03-07T08:36:16.151Z,978.51
2016-03-07T08:37:16.153Z,978.48
2016-03-07T08:38:16.156Z,978.48
2016-03-07T08:39:16.159Z,978.52
2016-03-07T08:40:16.161Z,978.49
2016-03-07T08:41:16.165Z,978.55
2016-03-07T08:42:16.167Z,978.49
2016-03-07T08:43:16.170Z,978.48
2016-03-07T08:44:16.172Z,978.48
2016-03-07T08:45:16.160Z,978.52
2016-03-07T08:46:16.163Z,978.52
2016-03-07T08:47:16.166Z,978.48
2016-03-07T08:48:16.168Z,978.46
2016-03-07T08:49:16.170Z,978.47
2016-03-07T08:50:16.158Z,978.49
2016-03-07T08:51:16.160Z,978.53
2016-03-07T08:52:16.163Z,978.54
2016-03-07T08:53:16.165Z,978.5
2016-03-07T08:54:16.168Z,978.49
2016-03-07T08:55:16.171Z,978.49
2016-03-07T08:56:16.173Z,978.46
2016-03-07T08:57:16.176Z,978.48
2016-03-07T08:58:16.163Z,978.47
2016-03-07T08:59:16.182Z,978.5
2016-03-07T09:00:16.168Z,978.49
2016-03-07T09:01:16.187Z,978.45
2016-03-07T09:02:16.173Z,978.47
2016-03-07T09:03:16.177Z,978.47
2016-03-07T09:04:16.179Z,978.47
2016-03-07T09:05:16.182Z,978.44
2016-03-07T09:06:16.185Z,978.45
2016-03-07T09:07:16.187Z,978.38
2016-03-07T09:08:16.175Z,978.4
2016-03-07T09:09:16.177Z,978.39
2016-03-07T09:10:16.180Z,978.46
2016-03-07T09:11:16.183Z,978.47
2016-03-07T09:12:16.389Z,978.41
2016-03-07T09:13:16.188Z,978.42
2016-03-07T09:14:16.175Z,978.41
2016-03-07T09:15:16.178Z,978.43
2016-03-07T09:16:16.180Z,978.42
2016-03-07T09:17:16.199Z,978.41
2016-03-07T09:18:16.186Z,978.39
2016-03-07T09:19:16.189Z,978.34
2016-03-07T09:20:16.254Z,978.36
2016-03-07T09:21:16.194Z,978.36
2016-03-07T09:22:16.182Z,978.36
2016-03-07T09:23:16.185Z,978.41
2016-03-07T09:24:16.186Z,978.37
2016-03-07T09:25:16.189Z,978.36
2016-03-07T09:26:16.192Z,978.37
2016-03-07T09:27:16.195Z,978.31
2016-03-07T09:28:16.197Z,978.33
2016-03-07T09:29:16.184Z,978.32
2016-03-07T09:30:16.203Z,978.31
2016-03-07T09:31:16.190Z,978.3
2016-03-07T09:32:16.192Z,978.28
2016-03-07T09:33:16.195Z,978.29
2016-03-07T09:34:16.198Z,978.26
2016-03-07T09:35:16.201Z,978.23
2016-03-07T09:36:16.187Z,978.26
2016-03-07T09:37:16.174Z,978.22
2016-03-07T09:38:16.177Z,978.25
2016-03-07T09:39:16.180Z,978.23
2016-03-07T09:40:16.183Z,978.22
2016-03-07T09:41:16.186Z,978.19
2016-03-07T09:42:16.189Z,978.22
2016-03-07T09:43:16.191Z,978.24
2016-03-07T09:44:16.178Z,978.23
2016-03-07T09:45:16.181Z,978.25
2016-03-07T09:46:16.183Z,978.24
2016-03-07T09:47:16.186Z,978.19
2016-03-07T09:48:16.188Z,978.16
2016-03-07T09:49:16.175Z,978.16
2016-03-07T09:50:16.177Z,978.18
2016-03-07T09:51:16.180Z,978.17
2016-03-07T09:52:16.183Z,978.14
2016-03-07T09:53:16.186Z,978.14
2016-03-07T09:54:16.174Z,978.17
2016-03-07T09:55:16.176Z,978.15
2016-03-07T09:56:16.179Z,978.15
2016-03-07T09:57:16.182Z,978.11
2016-03-07T09:58:16.169Z,978.13
2016-03-07T09:59:16.171Z,978.03
2016-03-07T10:00:16.174Z,978.09
2016-03-07T10:01:16.177Z,978.1
2016-03-07T10:02:16.179Z,978.1
2016-03-07T10:03:16.166Z,978.1
2016-03-07T10:04:16.169Z,978.07
2016-03-07T10:05:16.203Z,978.07
2016-03-07T10:06:16.176Z,978.06
2016-03-07T10:07:16.162Z,978.08
2016-03-07T10:08:16.165Z,978.05
2016-03-07T10:09:16.168Z,978.02
2016-03-07T10:10:16.170Z,978.04
2016-03-07T10:11:16.173Z,978.03
2016-03-07T10:12:16.176Z,978.04
2016-03-07T10:13:16.162Z,978.05
2016-03-07T10:14:16.181Z,978.02
2016-03-07T10:15:16.153Z,978.05
2016-03-07T10:16:16.156Z,978.01
2016-03-07T10:17:16.159Z,977.99
2016-03-07T10:18:16.162Z,978.02
2016-03-07T10:19:16.149Z,978.03
2016-03-07T10:20:16.152Z,978.02
2016-03-07T10:21:16.154Z,978.01
2016-03-07T10:22:16.157Z,978.01
2016-03-07T10:23:16.143Z,978.01
2016-03-07T10:24:16.147Z,978.02
2016-03-07T10:25:16.149Z,977.97
2016-03-07T10:26:16.152Z,977.95
2016-03-07T10:27:16.154Z,977.96
2016-03-07T10:28:16.142Z,977.96
2016-03-07T10:29:16.145Z,977.96
2016-03-07T10:30:16.163Z,977.99
2016-03-07T10:31:16.150Z,977.97
2016-03-07T10:32:16.137Z,978
2016-03-07T10:33:16.140Z,977.97
2016-03-07T10:34:16.142Z,978
2016-03-07T10:35:16.130Z,978.04
2016-03-07T10:36:16.132Z,978.08
2016-03-07T10:37:16.135Z,978.06
2016-03-07T10:38:16.138Z,978.01
2016-03-07T10:39:16.125Z,978.03
2016-03-07T10:40:16.205Z,978.06
2016-03-07T10:41:16.114Z,978.03
2016-03-07T10:42:16.117Z,978.05
2016-03-07T10:43:16.119Z,978
2016-03-07T10:44:16.122Z,978.04
2016-03-07T10:45:16.110Z,978.02
2016-03-07T10:46:16.113Z,978
2016-03-07T10:47:16.130Z,977.95
2016-03-07T10:48:16.118Z,977.96
2016-03-07T10:49:16.105Z,977.9
2016-03-07T10:50:16.107Z,977.91
2016-03-07T10:51:16.110Z,977.95
2016-03-07T10:52:16.097Z,977.96
2016-03-07T10:53:16.099Z,977.95
2016-03-07T10:54:16.102Z,977.95
2016-03-07T10:55:16.104Z,978.03
2016-03-07T10:56:16.093Z,978.06
2016-03-07T10:57:16.095Z,978.07
2016-03-07T10:58:16.098Z,978.05
2016-03-07T10:59:16.100Z,978.03
2016-03-07T11:00:16.097Z,978.03
2016-03-07T11:01:16.098Z,978.03
2016-03-07T11:02:16.084Z,978.09
2016-03-07T11:03:16.447Z,978.07
2016-03-07T11:04:16.089Z,978.14
2016-03-07T11:05:16.074Z,978.16
2016-03-07T11:06:16.077Z,978.11
2016-03-07T11:07:16.094Z,978.13
2016-03-07T11:08:16.066Z,978.13
2016-03-07T11:09:16.085Z,978.09
2016-03-07T11:10:16.072Z,978.1
2016-03-07T11:11:16.075Z,978.1
2016-03-07T11:12:16.062Z,978.08
2016-03-07T11:13:16.065Z,978.13
2016-03-07T11:14:16.068Z,978.11
2016-03-07T11:15:16.273Z,978.09
2016-03-07T11:16:16.056Z,978.03
2016-03-07T11:17:16.059Z,978.09
2016-03-07T11:18:16.046Z,978.11
2016-03-07T11:19:16.065Z,978.07
2016-03-07T11:20:16.051Z,978.1
2016-03-07T11:21:16.054Z,978.09
2016-03-07T11:22:16.057Z,978.11
2016-03-07T11:23:16.044Z,978.08
2016-03-07T11:24:16.048Z,978.03
2016-03-07T11:25:16.050Z,978.05
2016-03-07T11:26:16.036Z,978.01
2016-03-07T11:27:16.039Z,978.01
2016-03-07T11:28:16.042Z,978.01
2016-03-07T11:29:16.044Z,978.03
2016-03-07T11:30:16.031Z,978
2016-03-07T11:31:16.034Z,977.98
2016-03-07T11:32:16.037Z,977.97
2016-03-07T11:33:16.039Z,977.87
2016-03-07T11:34:16.042Z,977.93
2016-03-07T11:35:16.030Z,977.88
2016-03-07T11:36:16.032Z,977.89
2016-03-07T11:37:16.035Z,977.9
2016-03-07T11:38:16.038Z,977.89
2016-03-07T11:39:19.043Z,977.9
2016-03-07T11:40:16.027Z,977.95
2016-03-07T11:41:16.029Z,977.91
2016-03-07T11:42:16.018Z,977.89
2016-03-07T11:43:16.035Z,977.92
2016-03-07T11:44:16.038Z,977.92
2016-03-07T11:45:16.071Z,977.87
2016-03-07T11:46:16.013Z,977.94
2016-03-07T11:47:16.031Z,977.85
2016-03-07T11:48:16.017Z,977.87
2016-03-07T11:49:16.021Z,977.87
2016-03-07T11:50:16.085Z,977.92
2016-03-07T11:51:16.009Z,977.95
2016-03-07T11:52:16.013Z,977.89
2016-03-07T11:53:16.016Z,977.91
2016-03-07T11:54:16.018Z,977.91
2016-03-07T11:55:16.083Z,977.85
2016-03-07T11:56:16.008Z,977.83
2016-03-07T11:57:16.011Z,977.87
2016-03-07T11:58:16.013Z,977.82
2016-03-07T11:59:16.016Z,977.84
2016-03-07T12:00:16.019Z,977.85
2016-03-07T12:01:16.006Z,977.82
2016-03-07T12:02:16.009Z,977.78
2016-03-07T12:03:16.011Z,977.75
2016-03-07T12:04:15.998Z,977.8
2016-03-07T12:05:16.016Z,977.75
2016-03-07T12:06:16.007Z,977.75
2016-03-07T12:07:16.011Z,977.82
2016-03-07T12:08:15.994Z,977.8
2016-03-07T12:09:16.011Z,977.83
2016-03-07T12:10:16.045Z,977.82
2016-03-07T12:11:16.002Z,977.85
2016-03-07T12:12:15.988Z,977.82
2016-03-07T12:13:15.990Z,977.87
2016-03-07T12:14:15.993Z,977.92
2016-03-07T12:15:15.996Z,977.94
2016-03-07T12:16:15.998Z,977.96
2016-03-07T12:17:15.986Z,977.98
2016-03-07T12:18:15.990Z,977.98
2016-03-07T12:19:15.992Z,977.99
2016-03-07T12:20:15.994Z,977.97
2016-03-07T12:21:15.997Z,977.96
2016-03-07T12:22:15.984Z,978.02
2016-03-07T12:23:15.987Z,977.93
2016-03-07T12:24:15.989Z,977.99
2016-03-07T12:25:15.992Z,978.03
2016-03-07T12:26:15.979Z,977.98
2016-03-07T12:27:16.013Z,977.96
2016-03-07T12:28:15.984Z,978
2016-03-07T12:29:15.987Z,978
2016-03-07T12:30:15.990Z,977.99
2016-03-07T12:31:15.993Z,978